Time;durP1;ratioP1;P1;durP2;ratioP2;P2;SDS_P1;SDS_P2;PMS_P1;PMS_P2;Temp;Humidity;BMP_temperature;BMP_pressure;BME280_temperature;BME280_humidity;BME280_pressure;Samples;Min_cycle;Max_cycle;Signal;HPM_P1;HPM_P2
2022/05/11 00:01:15;;;;;;;6.63;5.47;;;21.50;68.80;;;;;;5071927;28;20440;-44
2022/05/11 00:03:42;;;;;;;6.20;5.60;;;21.40;69.30;;;;;;5072165;28;20439;-44
2022/05/11 00:06:09;;;;;;;6.53;5.57;;;21.20;70.50;;;;;;5071726;28;20483;-43
2022/05/11 00:08:37;;;;;;;9.10;6.80;;;20.90;72.30;;;;;;5071438;28;21050;-44
2022/05/11 00:11:04;;;;;;;10.17;7.10;;;20.90;73.30;;;;;;5072131;28;20792;-44
2022/05/11 00:13:31;;;;;;;6.03;5.53;;;21.40;74.70;;;;;;5071861;28;20866;-44
2022/05/11 00:15:59;;;;;;;9.70;7.33;;;20.80;76.00;;;;;;5072065;28;20460;-44
2022/05/11 00:18:26;;;;;;;7.50;6.80;;;20.50;77.60;;;;;;5071490;28;20441;-44
2022/05/11 00:20:52;;;;;;;7.93;6.77;;;20.60;78.80;;;;;;5072274;28;20491;-44
2022/05/11 00:23:19;;;;;;;9.97;6.70;;;20.90;80.70;;;;;;5072007;28;20440;-45
2022/05/11 00:25:46;;;;;;;9.00;7.57;;;20.50;80.30;;;;;;5071918;28;20480;-44
2022/05/11 00:28:12;;;;;;;7.93;7.13;;;20.80;83.10;;;;;;5072140;28;20833;-45
2022/05/11 00:30:39;;;;;;;8.70;7.20;;;20.70;83.20;;;;;;5071815;28;20435;-44
2022/05/11 00:33:08;;;;;;;10.43;7.77;;;20.50;82.80;;;;;;5072463;28;20475;-45
2022/05/11 00:35:35;;;;;;;7.90;6.53;;;20.40;84.80;;;;;;5072763;28;20983;-44
2022/05/11 00:38:04;;;;;;;9.63;6.80;;;20.40;85.40;;;;;;5055487;28;20851;-44
2022/05/11 00:40:31;;;;;;;10.40;8.10;;;20.00;85.20;;;;;;5075413;28;20492;-44
2022/05/11 00:42:58;;;;;;;8.30;7.60;;;20.10;86.30;;;;;;5075443;28;20435;-44
2022/05/11 00:45:24;;;;;;;10.60;7.57;;;20.40;86.70;;;;;;5075379;28;20552;-44
2022/05/11 00:47:56;;;;;;;14.70;7.27;;;19.60;86.50;;;;;;5075429;28;20449;-44
2022/05/11 00:50:26;;;;;;;8.67;7.77;;;19.80;87.70;;;;;;5074773;28;20438;-44
2022/05/11 00:52:56;;;;;;;7.77;6.97;;;19.90;88.00;;;;;;5075298;28;20446;-44
2022/05/11 00:55:27;;;;;;;7.23;6.60;;;19.50;87.90;;;;;;5075328;28;20429;-44
2022/05/11 00:57:58;;;;;;;7.77;6.97;;;19.60;88.20;;;;;;5075431;28;20445;-44
2022/05/11 01:00:25;;;;;;;8.30;7.30;;;19.80;88.40;;;;;;5074850;28;20731;-43
2022/05/11 01:02:57;;;;;;;7.67;6.93;;;19.90;88.80;;;;;;5076049;28;20430;-44
2022/05/11 01:05:25;;;;;;;7.63;6.90;;;20.00;89.00;;;;;;5074938;28;20566;-43
2022/05/11 01:07:54;;;;;;;8.80;6.43;;;19.70;88.60;;;;;;5075250;28;20435;-44
2022/05/11 01:10:21;;;;;;;7.73;6.93;;;20.30;89.80;;;;;;5074770;28;20434;-44
2022/05/11 01:12:54;;;;;;;7.23;6.53;;;19.50;89.00;;;;;;5075003;28;20924;-44
2022/05/11 01:15:21;;;;;;;7.13;6.37;;;19.70;89.70;;;;;;5075418;28;20513;-45
2022/05/11 01:17:48;;;;;;;8.53;7.50;;;19.70;89.80;;;;;;5074888;28;20442;-45
2022/05/11 01:20:17;;;;;;;6.87;6.03;;;19.60;89.80;;;;;;5074418;28;20446;-45
2022/05/11 01:22:54;;;;;;;8.10;6.43;;;19.90;90.30;;;;;;5074776;28;20427;-45
2022/05/11 01:25:23;;;;;;;9.93;7.37;;;19.80;90.70;;;;;;5074723;28;21046;-44
2022/05/11 01:27:50;;;;;;;8.40;7.60;;;20.10;90.60;;;;;;5056846;28;20450;-43
2022/05/11 01:30:19;;;;;;;8.07;6.27;;;19.90;90.50;;;;;;5074173;28;20438;-44
2022/05/11 01:32:47;;;;;;;6.83;6.10;;;19.90;90.50;;;;;;5074497;28;20435;-44
2022/05/11 01:35:35;;;;;;;6.67;6.13;;;19.90;90.20;;;;;;5074645;28;20434;-44
2022/05/11 01:38:10;;;;;;;7.23;6.53;;;19.70;90.20;;;;;;5074497;28;20427;-44
2022/05/11 01:40:38;;;;;;;7.97;5.80;;;19.50;90.10;;;;;;5073969;28;20805;-44
2022/05/11 01:43:05;;;;;;;9.80;6.10;;;19.80;90.30;;;;;;5074167;28;20437;-45
2022/05/11 01:45:31;;;;;;;6.97;6.27;;;19.40;90.10;;;;;;5074323;28;20490;-44
2022/05/11 01:47:58;;;;;;;9.37;6.63;;;19.70;90.30;;;;;;5074243;28;20773;-44
2022/05/11 01:50:26;;;;;;;6.90;6.20;;;19.80;90.50;;;;;;5073133;28;20782;-44
2022/05/11 01:52:52;;;;;;;6.97;6.13;;;19.70;90.40;;;;;;5074258;28;20443;-44
2022/05/11 01:55:19;;;;;;;8.67;6.23;;;19.80;90.50;;;;;;5074346;28;20789;-43
2022/05/11 01:57:47;;;;;;;7.47;6.70;;;19.70;90.60;;;;;;5074459;28;20426;-43
2022/05/11 02:00:14;;;;;;;6.77;6.20;;;19.90;90.80;;;;;;5073846;28;20899;-43
2022/05/11 02:02:41;;;;;;;8.43;7.10;;;20.00;91.20;;;;;;5073869;28;20434;-44
2022/05/11 02:07:53;;;;;;;7.73;7.00;;;19.50;91.30;;;;;;5073866;28;20433;-44
2022/05/11 02:10:21;;;;;;;7.27;6.57;;;19.80;91.70;;;;;;5073290;28;20439;-43
2022/05/11 02:12:50;;;;;;;9.77;7.30;;;19.20;91.50;;;;;;5073828;28;20437;-45
2022/05/11 02:15:18;;;;;;;7.23;6.07;;;20.00;92.00;;;;;;5073876;28;20919;-45
2022/05/11 02:17:46;;;;;;;8.10;7.30;;;19.90;91.90;;;;;;5075657;28;20958;-44
2022/05/11 02:20:14;;;;;;;9.23;7.50;;;19.50;91.70;;;;;;5075268;28;20434;-44
2022/05/11 02:22:41;;;;;;;7.50;6.80;;;19.60;91.80;;;;;;5075023;28;20428;-44
2022/05/11 02:25:10;;;;;;;7.23;6.60;;;19.90;92.00;;;;;;5073862;28;20472;-44
2022/05/11 02:27:37;;;;;;;8.40;6.43;;;19.80;91.90;;;;;;5055888;28;20449;-43
2022/05/11 02:30:07;;;;;;;7.90;6.90;;;19.70;91.80;;;;;;5073486;28;20434;-44
2022/05/11 02:32:34;;;;;;;7.80;6.50;;;19.60;91.60;;;;;;5073385;28;20437;-45
2022/05/11 02:35:13;;;;;;;6.93;6.30;;;19.50;91.50;;;;;;5073263;28;20436;-45
2022/05/11 02:37:40;;;;;;;7.40;6.70;;;19.80;91.90;;;;;;5073451;28;20425;-45
2022/05/11 02:40:08;;;;;;;6.97;6.37;;;19.70;91.60;;;;;;5072912;28;20450;-45
2022/05/11 02:42:34;;;;;;;7.30;6.60;;;19.90;91.90;;;;;;5073248;28;20437;-45
2022/05/11 02:45:01;;;;;;;7.93;6.90;;;19.70;91.80;;;;;;5073304;28;20434;-45
2022/05/11 02:47:29;;;;;;;7.40;6.67;;;19.60;91.70;;;;;;5073216;28;20451;-45
2022/05/11 02:49:56;;;;;;;8.53;7.20;;;19.50;91.70;;;;;;5072588;28;20942;-44
2022/05/11 02:52:22;;;;;;;7.60;6.90;;;19.10;91.60;;;;;;5073320;28;20435;-45
2022/05/11 02:54:49;;;;;;;16.47;6.50;;;19.60;91.90;;;;;;5073351;28;20435;-44
2022/05/11 02:57:16;;;;;;;8.90;6.60;;;19.30;91.90;;;;;;5073141;28;20451;-45
2022/05/11 02:59:44;;;;;;;6.90;6.13;;;19.60;92.20;;;;;;5072769;28;21082;-45
2022/05/11 03:02:11;;;;;;;7.70;6.93;;;19.60;92.30;;;;;;5072921;28;20444;-45
2022/05/11 03:04:38;;;;;;;7.27;6.23;;;19.20;92.00;;;;;;5073055;28;20666;-45
2022/05/11 03:07:05;;;;;;;15.93;6.60;;;19.60;92.20;;;;;;5072848;28;20486;-45
2022/05/11 03:09:32;;;;;;;7.23;6.53;;;19.40;92.10;;;;;;5073065;28;20915;-45
2022/05/11 03:11:58;;;;;;;7.30;6.60;;;19.40;92.40;;;;;;5072398;28;20437;-45
2022/05/11 03:14:25;;;;;;;7.57;6.93;;;19.00;92.50;;;;;;5072751;28;20445;-45
2022/05/11 03:16:52;;;;;;;10.37;7.63;;;19.40;93.00;;;;;;5072523;28;20996;-43
2022/05/11 03:19:18;;;;;;;9.47;6.90;;;19.50;93.40;;;;;;5072796;28;20431;-44
2022/05/11 03:21:47;;;;;;;8.63;7.30;;;19.50;93.90;;;;;;5072599;28;20449;-44
2022/05/11 03:24:14;;;;;;;7.40;6.70;;;19.40;93.90;;;;;;5073140;28;20484;-43
2022/05/11 03:26:41;;;;;;;9.30;6.90;;;19.10;93.60;;;;;;5072137;28;20490;-44
2022/05/11 03:29:07;;;;;;;7.60;7.00;;;20.00;94.10;;;;;;5072332;28;20843;-44
2022/05/11 03:31:35;;;;;;;8.27;7.47;;;19.60;94.30;;;;;;5072202;28;20445;-44
2022/05/11 03:36:48;;;;;;;10.50;8.00;;;19.40;94.70;;;;;;5072459;28;20512;-44
2022/05/11 03:39:15;;;;;;;11.70;9.33;;;19.50;95.20;;;;;;5071891;28;20961;-44
2022/05/11 03:41:42;;;;;;;8.77;7.90;;;19.50;95.60;;;;;;5072339;28;20529;-44
2022/05/11 03:44:09;;;;;;;15.37;8.63;;;19.40;96.00;;;;;;5072178;28;20472;-44
2022/05/11 03:46:36;;;;;;;11.50;8.00;;;19.40;95.80;;;;;;5072095;28;20966;-43
2022/05/11 03:49:02;;;;;;;10.53;7.83;;;19.50;96.40;;;;;;5072033;28;20620;-44
2022/05/11 03:51:29;;;;;;;9.20;7.80;;;19.50;96.50;;;;;;5072270;28;20933;-43
2022/05/11 03:53:57;;;;;;;9.50;7.63;;;19.40;96.50;;;;;;5072120;28;20430;-44
2022/05/11 03:56:24;;;;;;;7.53;6.57;;;19.20;96.30;;;;;;5071838;28;20829;-45
2022/05/11 03:58:50;;;;;;;7.90;7.10;;;19.50;97.10;;;;;;5071872;28;20438;-45
2022/05/11 04:01:17;;;;;;;8.73;7.83;;;19.50;96.80;;;;;;5072085;28;20433;-44
2022/05/11 04:03:46;;;;;;;11.87;8.30;;;19.20;96.80;;;;;;5072084;28;20446;-44
2022/05/11 04:06:12;;;;;;;10.50;9.00;;;19.40;97.40;;;;;;5072602;28;20481;-44
2022/05/11 04:08:39;;;;;;;9.27;8.17;;;19.60;97.90;;;;;;5072455;28;20434;-45
2022/05/11 04:11:07;;;;;;;8.50;7.70;;;19.30;97.80;;;;;;5073299;28;20473;-45
2022/05/11 04:13:33;;;;;;;12.07;8.50;;;19.30;98.20;;;;;;5075249;28;20437;-44
2022/05/11 04:16:00;;;;;;;9.07;8.20;;;19.20;98.40;;;;;;5077231;28;20468;-43
2022/05/11 04:18:27;;;;;;;8.77;7.87;;;19.50;98.90;;;;;;5058597;28;20467;-44
2022/05/11 04:20:53;;;;;;;9.27;8.27;;;19.40;99.00;;;;;;5076766;28;20440;-45
2022/05/11 04:23:20;;;;;;;13.27;9.00;;;19.20;99.40;;;;;;5077182;28;20425;-45
2022/05/11 04:25:47;;;;;;;11.00;9.07;;;19.10;99.50;;;;;;5076779;28;20492;-45
2022/05/11 04:28:14;;;;;;;14.27;9.47;;;19.50;99.90;;;;;;5076919;28;20887;-46
2022/05/11 04:30:41;;;;;;;11.87;8.60;;;19.40;99.90;;;;;;5075882;28;20444;-46
2022/05/11 04:33:09;;;;;;;10.53;9.30;;;19.50;99.90;;;;;;5077248;28;20437;-44
2022/05/11 04:35:36;;;;;;;9.30;8.50;;;19.40;99.90;;;;;;5076076;28;20472;-47
2022/05/11 04:38:06;;;;;;;11.47;9.57;;;19.10;99.80;;;;;;5076362;28;20438;-45
2022/05/11 04:40:35;;;;;;;11.53;10.20;;;19.30;99.90;;;;;;5076638;28;20442;-45
2022/05/11 04:43:07;;;;;;;11.20;10.10;;;19.50;99.90;;;;;;5077134;28;20475;-45
2022/05/11 04:45:37;;;;;;;12.90;10.67;;;19.60;99.90;;;;;;5077612;28;20462;-45
2022/05/11 04:48:04;;;;;;;11.83;10.70;;;19.60;99.90;;;;;;5076035;28;20943;-46
2022/05/11 04:50:31;;;;;;;10.27;9.20;;;19.50;99.90;;;;;;5057259;28;20450;-47
2022/05/11 04:52:57;;;;;;;13.50;10.50;;;19.60;99.90;;;;;;5076512;28;20540;-47
2022/05/11 04:55:24;;;;;;;11.57;10.50;;;19.50;99.90;;;;;;5075797;28;20460;-46
2022/05/11 04:57:51;;;;;;;12.60;10.17;;;19.70;99.90;;;;;;5075745;28;20425;-46
2022/05/11 05:00:18;;;;;;;12.73;10.50;;;18.80;99.90;;;;;;5075299;28;20875;-45
2022/05/11 05:02:46;;;;;;;11.23;10.13;;;19.70;99.90;;;;;;5075119;28;20441;-45
2022/05/11 05:05:13;;;;;;;12.90;11.57;;;19.10;99.90;;;;;;5074989;28;20487;-44
2022/05/11 05:07:41;;;;;;;13.63;10.73;;;19.50;99.90;;;;;;5075876;28;20488;-45
2022/05/11 05:10:12;;;;;;;11.27;10.10;;;19.70;99.90;;;;;;5074936;28;20430;-46
2022/05/11 05:12:38;;;;;;;15.33;11.73;;;19.50;99.90;;;;;;5075041;28;20449;-47
2022/05/11 05:15:06;;;;;;;18.13;14.03;;;19.70;99.90;;;;;;5075236;28;20426;-46
2022/05/11 05:17:32;;;;;;;13.97;12.27;;;19.80;99.90;;;;;;5074879;28;20436;-45
2022/05/11 05:20:00;;;;;;;15.67;11.00;;;19.60;99.90;;;;;;5074495;28;20931;-46
2022/05/11 05:22:27;;;;;;;14.20;9.70;;;19.60;99.90;;;;;;5056617;28;20970;-47
2022/05/11 05:24:54;;;;;;;11.23;10.13;;;19.50;99.90;;;;;;5074719;28;20429;-45
2022/05/11 05:27:21;;;;;;;12.80;11.47;;;19.70;99.90;;;;;;5074398;28;21001;-46
2022/05/11 05:32:37;;;;;;;12.20;11.10;;;19.70;99.90;;;;;;5074986;28;20518;-44
2022/05/11 05:35:06;;;;;;;14.00;9.70;;;19.70;99.90;;;;;;5074011;28;20495;-45
2022/05/11 05:37:33;;;;;;;14.70;10.43;;;19.90;99.90;;;;;;5074795;28;20443;-45
2022/05/11 05:40:01;;;;;;;13.10;10.03;;;19.80;99.90;;;;;;5074811;28;20446;-46
2022/05/11 05:42:29;;;;;;;16.47;11.40;;;19.70;99.90;;;;;;5074107;28;20449;-46
2022/05/11 05:44:55;;;;;;;13.00;11.70;;;19.70;99.90;;;;;;5073484;28;20793;-46
2022/05/11 05:47:22;;;;;;;11.30;10.30;;;19.70;99.90;;;;;;5073462;28;20932;-48
2022/05/11 05:49:49;;;;;;;13.93;10.10;;;19.60;99.90;;;;;;5073690;28;20434;-45
2022/05/11 05:52:19;;;;;;;11.70;10.53;;;20.20;99.90;;;;;;5073598;28;20432;-49
2022/05/11 05:54:46;;;;;;;17.57;11.23;;;20.00;99.90;;;;;;5073554;28;20435;-46
2022/05/11 05:57:13;;;;;;;14.17;11.63;;;20.10;99.90;;;;;;5073897;28;20519;-45
2022/05/11 05:59:39;;;;;;;13.63;11.53;;;19.90;99.90;;;;;;5073330;28;20426;-47
2022/05/11 06:02:09;;;;;;;13.17;11.87;;;20.10;99.90;;;;;;5073621;28;20442;-47
2022/05/11 06:04:36;;;;;;;11.30;10.20;;;20.20;99.90;;;;;;5073466;28;20438;-47
2022/05/11 06:07:03;;;;;;;11.60;10.33;;;20.50;99.90;;;;;;5073543;28;20485;-45
2022/05/11 06:09:31;;;;;;;10.67;9.67;;;20.40;99.90;;;;;;5073575;28;20430;-47
2022/05/11 06:11:57;;;;;;;12.30;11.07;;;19.90;99.90;;;;;;5073185;28;20442;-45
2022/05/11 06:14:24;;;;;;;11.40;10.10;;;20.40;99.90;;;;;;5073343;28;20426;-45
2022/05/11 06:16:53;;;;;;;11.53;10.37;;;20.40;99.90;;;;;;5073962;28;20537;-46
2022/05/11 06:19:20;;;;;;;10.17;9.10;;;20.30;99.90;;;;;;5072957;28;20512;-46
2022/05/11 06:21:48;;;;;;;10.77;9.67;;;20.20;99.80;;;;;;5073155;28;20432;-46
2022/05/11 06:24:16;;;;;;;14.70;10.47;;;20.60;99.80;;;;;;5072984;28;20431;-45
2022/05/11 06:26:44;;;;;;;10.63;9.73;;;20.70;99.90;;;;;;5073071;28;20493;-45
2022/05/11 06:29:10;;;;;;;13.23;9.90;;;20.40;99.90;;;;;;5072683;28;20432;-45
2022/05/11 06:31:38;;;;;;;13.70;11.13;;;20.80;99.90;;;;;;5073093;28;20440;-46
2022/05/11 06:34:05;;;;;;;13.03;11.43;;;20.00;99.90;;;;;;5072639;28;20439;-44
2022/05/11 06:36:31;;;;;;;14.23;12.80;;;20.40;99.70;;;;;;5071736;28;20985;-45
2022/05/11 06:38:58;;;;;;;14.97;11.50;;;20.60;99.60;;;;;;5072521;28;20798;-45
2022/05/11 06:41:27;;;;;;;11.57;10.53;;;20.80;99.90;;;;;;5072831;28;20834;-44
2022/05/11 06:43:55;;;;;;;10.77;9.87;;;20.80;99.50;;;;;;5072615;28;20442;-45
2022/05/11 06:46:22;;;;;;;11.80;10.60;;;21.00;99.60;;;;;;5072820;28;20452;-45
2022/05/11 06:48:49;;;;;;;14.80;11.73;;;20.70;99.40;;;;;;5071951;28;20428;-45
2022/05/11 06:51:18;;;;;;;10.03;9.13;;;20.90;99.30;;;;;;5072300;28;20502;-45
2022/05/11 06:59:21;;;;;;;10.60;9.50;;;20.60;98.00;;;;;;5072101;28;20472;-45
2022/05/11 07:01:48;;;;;;;11.90;9.60;;;21.10;98.10;;;;;;5072448;28;20444;-46
2022/05/11 07:04:15;;;;;;;11.90;8.87;;;21.10;98.00;;;;;;5072536;28;20428;-46
2022/05/11 07:06:41;;;;;;;11.20;9.07;;;20.80;97.50;;;;;;5071804;28;21008;-44
2022/05/11 07:09:09;;;;;;;11.70;8.60;;;21.30;97.20;;;;;;5072269;28;20471;-45
2022/05/11 07:14:21;;;;;;;9.50;8.50;;;21.60;96.70;;;;;;5072233;28;20431;-45
2022/05/11 07:16:47;;;;;;;10.30;9.20;;;21.20;95.60;;;;;;5072221;28;20451;-46
2022/05/11 07:19:14;;;;;;;9.20;8.30;;;21.40;95.50;;;;;;5072450;28;20816;-46
2022/05/11 07:21:41;;;;;;;12.93;9.57;;;21.80;95.50;;;;;;5071772;28;20441;-47
2022/05/11 07:24:15;;;;;;;11.70;8.90;;;21.40;95.20;;;;;;5072031;28;20843;-45
2022/05/11 07:26:44;;;;;;;9.70;8.33;;;21.90;95.40;;;;;;5072204;28;20848;-47
2022/05/11 07:29:11;;;;;;;9.47;8.57;;;21.30;94.70;;;;;;5053320;28;20445;-46
2022/05/11 07:31:39;;;;;;;10.40;8.60;;;22.00;94.80;;;;;;5053751;28;20537;-46
2022/05/11 07:34:05;;;;;;;10.30;8.30;;;21.80;94.40;;;;;;5072133;28;20452;-46
2022/05/11 07:36:32;;;;;;;9.10;8.20;;;21.70;94.00;;;;;;5071963;28;20465;-45
2022/05/11 07:38:59;;;;;;;8.93;7.67;;;22.20;94.10;;;;;;5053428;28;20508;-45
2022/05/11 07:41:26;;;;;;;9.43;7.60;;;22.00;93.80;;;;;;5072118;28;20531;-46
2022/05/11 07:43:52;;;;;;;10.10;8.90;;;22.40;93.60;;;;;;5071771;28;20426;-46
2022/05/11 07:46:19;;;;;;;8.30;7.37;;;22.50;93.30;;;;;;5071204;28;20455;-47
2022/05/11 07:48:48;;;;;;;9.13;6.70;;;22.20;92.80;;;;;;5069959;28;20481;-45
2022/05/11 07:51:14;;;;;;;8.70;7.90;;;22.60;92.70;;;;;;5071621;28;20436;-47
2022/05/11 07:53:41;;;;;;;9.40;8.40;;;22.10;92.30;;;;;;5071064;28;20506;-45
2022/05/11 08:01:37;;;;;;;7.80;7.00;;;22.10;92.00;;;;;;5071712;28;20435;-46
2022/05/11 08:04:05;;;;;;;9.27;6.90;;;22.40;91.70;;;;;;5071705;28;20442;-46
2022/05/11 08:06:31;;;;;;;7.90;6.93;;;22.40;91.00;;;;;;5065880;28;20919;-46
2022/05/11 08:08:58;;;;;;;9.47;6.97;;;22.40;90.90;;;;;;5063903;28;20447;-45
2022/05/11 08:11:24;;;;;;;14.10;7.37;;;22.70;90.80;;;;;;5056981;28;20807;-45
2022/05/11 08:13:51;;;;;;;9.67;6.10;;;22.50;90.30;;;;;;5051811;28;20437;-45
2022/05/11 08:16:18;;;;;;;7.80;6.97;;;22.90;90.00;;;;;;5050452;28;20511;-45
2022/05/11 08:18:45;;;;;;;6.77;5.60;;;23.10;89.50;;;;;;5051302;28;20442;-45
2022/05/11 08:21:13;;;;;;;8.63;6.27;;;23.10;88.90;;;;;;5051576;28;20475;-46
2022/05/11 08:23:41;;;;;;;10.80;6.50;;;23.30;88.20;;;;;;5050937;28;20440;-45
2022/05/11 08:26:08;;;;;;;10.10;6.17;;;23.30;87.70;;;;;;5051353;28;20580;-46
2022/05/11 08:28:35;;;;;;;6.37;5.73;;;23.30;87.50;;;;;;5050951;28;20476;-45
2022/05/11 08:33:47;;;;;;;8.83;6.50;;;23.30;87.30;;;;;;5051340;28;20456;-46
2022/05/11 08:36:17;;;;;;;8.20;6.60;;;23.40;87.50;;;;;;5050855;28;20453;-46
2022/05/11 08:38:46;;;;;;;8.00;6.77;;;23.40;87.40;;;;;;5050764;28;20438;-46
2022/05/11 08:41:20;;;;;;;7.40;6.70;;;23.40;87.20;;;;;;5050664;28;20445;-46
2022/05/11 08:43:48;;;;;;;7.90;6.50;;;23.50;86.50;;;;;;5051054;28;20525;-46
2022/05/11 08:46:27;;;;;;;8.67;7.80;;;23.50;86.40;;;;;;5050750;28;20459;-46
2022/05/11 08:48:59;;;;;;;8.43;6.60;;;23.40;86.50;;;;;;5050735;28;20488;-46
2022/05/11 08:51:35;;;;;;;9.60;6.30;;;23.60;86.80;;;;;;5050773;28;20528;-46
2022/05/11 08:54:13;;;;;;;7.80;6.77;;;23.70;86.60;;;;;;5051164;28;20438;-46
2022/05/11 08:56:40;;;;;;;9.63;7.00;;;23.80;85.90;;;;;;5050781;28;20468;-46
2022/05/11 08:59:09;;;;;;;8.53;7.50;;;23.90;85.40;;;;;;5051743;28;20440;-46
2022/05/11 09:01:45;;;;;;;8.53;7.00;;;24.10;84.40;;;;;;5052733;28;20453;-45
2022/05/11 09:04:16;;;;;;;7.70;6.17;;;24.10;83.60;;;;;;5054692;28;20440;-47
2022/05/11 09:06:45;;;;;;;8.77;8.00;;;24.00;83.60;;;;;;5061266;28;20555;-46
2022/05/11 09:09:14;;;;;;;11.37;7.60;;;24.10;83.50;;;;;;5074373;28;20462;-46
2022/05/11 09:11:43;;;;;;;10.47;6.83;;;24.20;83.00;;;;;;5054467;28;20439;-45
2022/05/11 09:14:13;;;;;;;9.30;7.33;;;24.20;82.60;;;;;;5064103;28;20437;-47
2022/05/11 09:16:43;;;;;;;11.03;7.10;;;24.20;81.80;;;;;;5076167;28;20912;-45
2022/05/11 09:19:12;;;;;;;11.37;7.57;;;24.20;81.50;;;;;;5094604;28;20918;-48
2022/05/11 09:21:41;;;;;;;8.43;7.30;;;24.30;81.30;;;;;;5094530;28;20429;-46
2022/05/11 09:24:21;;;;;;;12.90;7.60;;;24.30;80.50;;;;;;5094482;28;20745;-45
2022/05/11 09:27:03;;;;;;;11.27;8.10;;;24.40;79.70;;;;;;5094017;28;20547;-46
2022/05/11 09:29:35;;;;;;;8.63;7.53;;;24.50;79.80;;;;;;5094673;28;20436;-45
2022/05/11 09:32:33;;;;;;;9.37;8.50;;;24.50;79.80;;;;;;5095409;28;20445;-46
2022/05/11 09:35:25;;;;;;;9.50;8.47;;;24.50;79.80;;;;;;5094894;28;20958;-46
2022/05/11 09:38:03;;;;;;;10.30;8.77;;;24.40;79.60;;;;;;5094569;28;20975;-46
2022/05/11 09:40:32;;;;;;;9.80;8.80;;;24.50;80.40;;;;;;5093684;28;20478;-45
2022/05/11 09:43:01;;;;;;;13.47;9.27;;;24.60;80.10;;;;;;5093665;28;21016;-46
2022/05/11 09:45:41;;;;;;;9.80;8.80;;;24.60;79.60;;;;;;5076232;28;20545;-46
2022/05/11 09:48:13;;;;;;;11.30;8.43;;;24.80;79.10;;;;;;5073447;28;20484;-46
2022/05/11 09:50:41;;;;;;;9.10;7.77;;;25.00;79.50;;;;;;5073150;28;20441;-46
2022/05/11 09:53:38;;;;;;;10.37;9.37;;;25.20;78.00;;;;;;5073430;28;20487;-46
2022/05/11 09:56:21;;;;;;;9.30;8.50;;;25.40;76.80;;;;;;5073626;28;20485;-46
2022/05/11 09:58:47;;;;;;;9.27;8.40;;;25.60;76.90;;;;;;5073274;28;20433;-46
2022/05/11 10:01:17;;;;;;;11.53;8.30;;;25.70;75.90;;;;;;5073467;28;20472;-48
2022/05/11 10:03:49;;;;;;;14.10;9.07;;;25.90;75.20;;;;;;5073455;28;20914;-46
2022/05/11 10:06:19;;;;;;;10.23;9.20;;;26.00;74.20;;;;;;5073481;28;20544;-46
2022/05/11 10:08:48;;;;;;;9.80;8.60;;;25.90;73.80;;;;;;5072393;28;20863;-46
2022/05/11 10:11:21;;;;;;;9.80;8.90;;;26.00;73.70;;;;;;5072407;28;20946;-46
2022/05/11 10:13:56;;;;;;;9.73;8.93;;;26.00;73.60;;;;;;5073583;28;20442;-46
2022/05/11 10:22:15;;;;;;;9.73;8.10;;;25.80;74.10;;;;;;5093189;28;20427;-47
2022/05/11 10:25:00;;;;;;;9.90;8.10;;;25.80;73.30;;;;;;5093456;28;20429;-47
2022/05/11 10:27:36;;;;;;;8.47;7.67;;;25.80;72.30;;;;;;5094418;28;20904;-44
2022/05/11 10:30:13;;;;;;;9.17;8.17;;;25.60;72.00;;;;;;5094060;28;20429;-46
2022/05/11 10:32:51;;;;;;;9.30;7.63;;;25.70;72.00;;;;;;5094413;28;20463;-45
2022/05/11 10:35:22;;;;;;;11.03;8.27;;;25.70;72.40;;;;;;5093887;28;20929;-45
2022/05/11 10:38:07;;;;;;;7.60;6.97;;;25.70;72.70;;;;;;5093910;28;20420;-46
2022/05/11 10:40:41;;;;;;;8.63;7.73;;;25.60;71.90;;;;;;5094264;28;20482;-45
2022/05/11 10:43:21;;;;;;;7.20;6.57;;;25.80;71.40;;;;;;5094657;28;20438;-45
2022/05/11 10:45:53;;;;;;;13.67;7.20;;;25.90;70.30;;;;;;5094376;28;20546;-44
2022/05/11 10:48:37;;;;;;;9.23;7.43;;;25.80;70.90;;;;;;5093622;28;20471;-45
2022/05/11 10:51:11;;;;;;;7.33;6.40;;;25.90;71.70;;;;;;5092884;28;20520;-45
2022/05/11 10:53:43;;;;;;;7.47;6.77;;;26.00;70.00;;;;;;5094261;28;20444;-45
2022/05/11 10:56:40;;;;;;;10.67;5.70;;;25.90;68.80;;;;;;5094276;28;20440;-44
2022/05/11 10:59:50;;;;;;;7.20;6.50;;;26.10;68.90;;;;;;5093214;28;20429;-45
2022/05/11 11:02:48;;;;;;;7.17;6.30;;;26.20;67.80;;;;;;5011187;28;20559;-45
2022/05/11 11:05:23;;;;;;;6.80;5.63;;;26.20;68.10;;;;;;5094327;28;20438;-44
2022/05/11 11:07:56;;;;;;;8.93;6.50;;;26.40;66.60;;;;;;5093401;28;20483;-46
2022/05/11 11:10:30;;;;;;;9.73;6.87;;;26.60;66.70;;;;;;5091482;28;20435;-45
2022/05/11 11:13:20;;;;;;;7.90;6.00;;;26.70;66.50;;;;;;5073731;28;20488;-45
2022/05/11 11:15:48;;;;;;;8.07;6.50;;;26.90;65.50;;;;;;5090516;28;20488;-45
2022/05/11 11:18:19;;;;;;;8.43;5.90;;;27.10;64.70;;;;;;5092782;28;20510;-44
2022/05/11 11:20:47;;;;;;;8.67;5.83;;;27.10;63.90;;;;;;5093237;28;20809;-45
2022/05/11 11:23:31;;;;;;;8.17;6.13;;;27.20;63.40;;;;;;5092954;28;20440;-45
2022/05/11 11:26:00;;;;;;;5.90;5.40;;;27.30;62.70;;;;;;5093094;28;20465;-44
2022/05/11 11:28:28;;;;;;;8.50;5.70;;;27.30;63.60;;;;;;5092249;28;20477;-45
2022/05/11 11:31:16;;;;;;;7.67;5.40;;;27.40;62.40;;;;;;5093403;28;20464;-45
2022/05/11 11:34:16;;;;;;;6.37;5.77;;;27.20;61.60;;;;;;5092238;28;20442;-45
2022/05/11 11:36:43;;;;;;;6.40;4.60;;;27.60;61.60;;;;;;5092889;28;20461;-45
2022/05/11 11:39:14;;;;;;;8.80;5.13;;;27.60;60.40;;;;;;5092740;28;20748;-45
2022/05/11 11:42:03;;;;;;;7.60;5.20;;;27.60;59.60;;;;;;5092371;28;20472;-45
2022/05/11 11:44:38;;;;;;;11.90;4.93;;;27.60;59.10;;;;;;5092679;28;20474;-45
2022/05/11 11:47:35;;;;;;;7.60;5.10;;;27.50;59.10;;;;;;5092714;28;20454;-45
2022/05/11 11:50:03;;;;;;;7.50;5.23;;;27.50;57.90;;;;;;5092827;28;20428;-44
2022/05/11 11:52:36;;;;;;;12.20;4.90;;;27.50;58.60;;;;;;5092882;28;20444;-44
2022/05/11 11:55:08;;;;;;;8.20;5.23;;;27.60;58.00;;;;;;5074919;28;20448;-45
2022/05/11 11:57:35;;;;;;;7.87;5.03;;;27.60;57.60;;;;;;5092770;28;20441;-47
2022/05/11 12:00:05;;;;;;;6.93;4.80;;;27.60;57.30;;;;;;5092796;28;20424;-45
2022/05/11 12:02:42;;;;;;;6.20;4.53;;;27.70;56.40;;;;;;5094883;28;20424;-45
2022/05/11 12:05:12;;;;;;;7.90;4.57;;;27.60;55.90;;;;;;5093343;28;20926;-45
2022/05/11 12:16:07;;;;;;;8.43;4.23;;;27.80;53.50;;;;;;5055429;28;20538;-44
2022/05/11 12:18:38;;;;;;;6.50;3.70;;;27.90;53.40;;;;;;5036033;28;20545;-45
2022/05/11 12:21:07;;;;;;;4.27;3.37;;;27.90;52.40;;;;;;5054448;28;20429;-45
2022/05/11 12:23:36;;;;;;;4.93;3.50;;;27.90;52.10;;;;;;5054545;28;20445;-45
2022/05/11 12:26:07;;;;;;;6.00;4.20;;;27.90;51.80;;;;;;5053330;28;20485;-44
2022/05/11 12:28:37;;;;;;;8.07;4.50;;;27.90;51.50;;;;;;5054572;28;20500;-44
2022/05/11 12:31:05;;;;;;;5.03;3.80;;;28.00;51.70;;;;;;5054188;28;20895;-45
2022/05/11 12:33:35;;;;;;;6.17;4.30;;;28.10;52.00;;;;;;5053753;28;20430;-45
2022/05/11 12:36:03;;;;;;;7.57;4.97;;;28.10;52.40;;;;;;5057709;28;20450;-44
2022/05/11 12:38:32;;;;;;;8.30;5.10;;;28.20;53.10;;;;;;5057617;28;20439;-46
2022/05/11 12:41:01;;;;;;;7.37;4.40;;;28.30;52.80;;;;;;5057373;28;20441;-44
2022/05/11 12:43:31;;;;;;;8.97;5.30;;;28.30;52.60;;;;;;5057989;28;20527;-45
2022/05/11 12:46:00;;;;;;;9.53;4.73;;;28.40;52.40;;;;;;5057294;28;20450;-43
2022/05/11 12:48:31;;;;;;;9.33;3.80;;;28.20;51.90;;;;;;5056842;28;20496;-45
2022/05/11 12:51:03;;;;;;;6.80;3.80;;;28.30;51.40;;;;;;5059073;28;20437;-45
2022/05/11 12:53:32;;;;;;;4.23;3.70;;;28.30;51.10;;;;;;5057638;28;20434;-46
2022/05/11 12:56:12;;;;;;;8.50;4.50;;;28.20;51.40;;;;;;5056964;28;20454;-45
2022/05/11 12:58:44;;;;;;;5.53;4.30;;;28.40;51.50;;;;;;5056742;28;20790;-46
2022/05/11 13:01:13;;;;;;;9.47;4.00;;;28.20;51.70;;;;;;5055845;28;20435;-45
2022/05/11 13:03:40;;;;;;;9.20;4.80;;;28.20;51.90;;;;;;5056249;28;20441;-44
2022/05/11 13:06:20;;;;;;;5.07;4.53;;;28.20;51.90;;;;;;5056215;28;20454;-46
2022/05/11 13:08:49;;;;;;;10.77;4.10;;;28.20;51.40;;;;;;5055705;28;20489;-45
2022/05/11 13:11:20;;;;;;;6.10;3.73;;;28.20;51.10;;;;;;5064240;28;20518;-45
2022/05/11 13:13:51;;;;;;;6.97;3.77;;;28.00;50.70;;;;;;5076188;28;20442;-46
2022/05/11 13:16:20;;;;;;;16.53;6.23;;;28.50;50.90;;;;;;5096002;28;20449;-44
2022/05/11 13:18:47;;;;;;;14.97;5.93;;;28.50;50.80;;;;;;5095497;28;20428;-45
2022/05/11 13:21:28;;;;;;;14.67;5.53;;;28.60;50.90;;;;;;5095508;28;20444;-45
2022/05/11 13:23:55;;;;;;;6.80;4.00;;;28.70;50.90;;;;;;5095945;28;20494;-46
2022/05/11 13:26:35;;;;;;;6.63;4.07;;;28.70;51.00;;;;;;5094963;28;20464;-46
2022/05/11 13:29:12;;;;;;;11.60;4.90;;;28.70;50.60;;;;;;5095173;28;20477;-45
2022/05/11 13:31:38;;;;;;;10.67;5.43;;;28.50;50.50;;;;;;5095536;28;20432;-45
2022/05/11 13:34:06;;;;;;;14.23;4.97;;;28.70;50.70;;;;;;5095830;28;20429;-46